createdAt,value
2019-03-30T00:01:05.113Z,9.67
2019-03-30T00:02:11.051Z,9.65
2019-03-30T00:03:15.731Z,9.63
2019-03-30T00:04:20.342Z,9.61
2019-03-30T00:05:25.038Z,9.61
2019-03-30T00:06:29.913Z,9.60
2019-03-30T00:07:34.672Z,9.60
2019-03-30T00:08:39.034Z,9.58
2019-03-30T00:09:43.725Z,9.55
2019-03-30T00:10:48.584Z,9.54
2019-03-30T00:11:53.451Z,9.54
2019-03-30T00:12:58.213Z,9.52
2019-03-30T00:14:03.071Z,9.52
2019-03-30T00:15:07.860Z,9.50
2019-03-30T00:16:12.812Z,9.49
2019-03-30T00:17:17.914Z,9.49
2019-03-30T00:18:22.356Z,9.47
2019-03-30T00:19:34.823Z,9.45
2019-03-30T00:20:33.193Z,9.43
2019-03-30T00:21:37.887Z,9.44
2019-03-30T00:22:42.837Z,9.41
2019-03-30T00:23:47.516Z,9.39
2019-03-30T00:24:52.467Z,9.38
2019-03-30T00:25:57.234Z,9.35
2019-03-30T00:27:01.942Z,9.34
2019-03-30T00:28:06.711Z,9.33
2019-03-30T00:29:11.674Z,9.33
2019-03-30T00:30:19.010Z,9.31
2019-03-30T00:31:22.363Z,9.27
2019-03-30T00:32:26.978Z,9.23
2019-03-30T00:33:31.595Z,9.21
2019-03-30T00:34:36.115Z,9.18
2019-03-30T00:35:40.561Z,9.17
2019-03-30T00:36:45.427Z,9.14
2019-03-30T00:37:50.348Z,9.15
2019-03-30T00:38:55.209Z,9.13
2019-03-30T00:39:59.807Z,9.12
2019-03-30T00:41:04.999Z,9.11
2019-03-30T00:42:09.911Z,9.10
2019-03-30T00:43:14.599Z,9.08
2019-03-30T00:44:19.201Z,9.07
2019-03-30T00:45:23.962Z,9.07
2019-03-30T00:46:28.400Z,9.06
2019-03-30T00:47:32.858Z,9.05
2019-03-30T00:48:37.788Z,9.04
2019-03-30T00:49:48.970Z,9.06
2019-03-30T00:50:49.061Z,9.05
2019-03-30T00:51:53.767Z,9.02
2019-03-30T00:52:58.636Z,9.01
2019-03-30T00:54:03.325Z,8.98
2019-03-30T00:55:08.415Z,8.95
2019-03-30T00:56:13.337Z,8.94
2019-03-30T00:57:17.946Z,8.94
2019-03-30T00:58:25.508Z,8.93
2019-03-30T00:59:29.044Z,8.93
2019-03-30T01:00:33.888Z,8.93
2019-03-30T01:01:38.547Z,8.92
2019-03-30T01:02:43.318Z,8.91
2019-03-30T01:03:47.767Z,8.91
2019-03-30T01:04:52.444Z,8.90
2019-03-30T01:05:58.329Z,8.89
2019-03-30T01:07:03.849Z,8.88
2019-03-30T01:08:08.636Z,8.87
2019-03-30T01:09:13.010Z,8.87
2019-03-30T01:10:17.540Z,8.84
2019-03-30T01:11:22.803Z,8.84
2019-03-30T01:12:27.750Z,8.83
2019-03-30T01:13:32.676Z,8.80
2019-03-30T01:14:37.038Z,8.78
2019-03-30T01:15:41.551Z,8.75
2019-03-30T01:16:46.242Z,8.75
2019-03-30T01:17:50.725Z,8.75
2019-03-30T01:18:55.424Z,8.73
2019-03-30T01:20:03.040Z,8.73
2019-03-30T01:21:06.035Z,8.71
2019-03-30T01:22:11.078Z,8.71
2019-03-30T01:23:15.768Z,8.70
2019-03-30T01:24:20.499Z,8.69
2019-03-30T01:25:25.442Z,8.68
2019-03-30T01:26:30.456Z,8.67
2019-03-30T01:27:35.072Z,8.66
2019-03-30T01:28:39.750Z,8.65
2019-03-30T01:29:44.678Z,8.64
2019-03-30T01:30:49.367Z,8.63
2019-03-30T01:31:54.139Z,8.63
2019-03-30T01:32:58.917Z,8.61
2019-03-30T01:34:03.606Z,8.59
2019-03-30T01:35:08.787Z,8.59
2019-03-30T01:36:13.517Z,8.58
2019-03-30T01:37:18.386Z,8.57
2019-03-30T01:38:23.005Z,8.56
2019-03-30T01:39:28.115Z,8.55
2019-03-30T01:40:32.794Z,8.54
2019-03-30T01:41:37.493Z,8.53
2019-03-30T01:42:42.434Z,8.53
2019-03-30T01:43:47.344Z,8.51
2019-03-30T01:44:52.000Z,8.51
2019-03-30T01:45:56.437Z,8.49
2019-03-30T01:47:01.213Z,8.48
2019-03-30T01:48:06.294Z,8.46
2019-03-30T01:49:11.063Z,8.44
2019-03-30T01:50:17.734Z,8.43
2019-03-30T01:51:22.007Z,8.43
2019-03-30T01:52:26.955Z,8.42
2019-03-30T01:53:31.327Z,8.40
2019-03-30T01:54:35.762Z,8.39
2019-03-30T01:55:40.443Z,8.38
2019-03-30T01:56:45.173Z,8.38
2019-03-30T01:57:50.030Z,8.36
2019-03-30T01:58:54.480Z,8.38
2019-03-30T01:59:59.092Z,8.36
2019-03-30T02:01:04.271Z,8.33
2019-03-30T02:02:08.707Z,8.31
2019-03-30T02:03:13.806Z,8.29
2019-03-30T02:04:18.508Z,8.27
2019-03-30T02:05:23.266Z,8.28
2019-03-30T02:06:27.875Z,8.28
2019-03-30T02:07:32.489Z,8.26
2019-03-30T02:08:37.019Z,8.24
2019-03-30T02:09:41.634Z,8.22
2019-03-30T02:10:46.821Z,8.20
2019-03-30T02:11:51.511Z,8.19
2019-03-30T02:12:55.868Z,8.17
2019-03-30T02:14:00.499Z,8.15
2019-03-30T02:15:05.985Z,8.15
2019-03-30T02:16:10.849Z,8.14
2019-03-30T02:17:15.377Z,8.13
2019-03-30T02:18:20.072Z,8.12
2019-03-30T02:19:24.867Z,8.12
2019-03-30T02:20:38.443Z,8.11
2019-03-30T02:21:43.144Z,8.10
2019-03-30T02:22:47.756Z,8.10
2019-03-30T02:23:52.708Z,8.10
2019-03-30T02:24:57.482Z,8.09
2019-03-30T02:26:01.850Z,8.08
2019-03-30T02:27:06.377Z,8.08
2019-03-30T02:28:10.893Z,8.07
2019-03-30T02:29:15.516Z,8.07
2019-03-30T02:30:20.117Z,8.06
2019-03-30T02:31:24.551Z,8.04
2019-03-30T02:32:28.997Z,8.03
2019-03-30T02:33:33.676Z,8.02
2019-03-30T02:34:38.050Z,8.01
2019-03-30T02:35:43.133Z,8.00
2019-03-30T02:36:48.001Z,7.99
2019-03-30T02:37:52.653Z,8.00
2019-03-30T02:38:57.135Z,7.97
2019-03-30T02:40:01.741Z,7.97
2019-03-30T02:41:06.344Z,7.96
2019-03-30T02:42:10.956Z,7.95
2019-03-30T02:43:15.378Z,7.93
2019-03-30T02:44:20.261Z,7.92
2019-03-30T02:45:24.702Z,7.90
2019-03-30T02:46:29.307Z,7.88
2019-03-30T02:47:34.154Z,7.89
2019-03-30T02:48:38.764Z,7.90
2019-03-30T02:49:43.449Z,7.86
2019-03-30T02:50:50.606Z,7.83
2019-03-30T02:51:55.134Z,7.83
2019-03-30T02:53:00.060Z,7.80
2019-03-30T02:54:04.828Z,7.80
2019-03-30T02:55:12.605Z,7.78
2019-03-30T02:56:16.012Z,7.75
2019-03-30T02:57:20.367Z,7.74
2019-03-30T02:58:25.377Z,7.73
2019-03-30T02:59:29.760Z,7.71
2019-03-30T03:00:34.609Z,7.70
2019-03-30T03:01:38.977Z,7.69
2019-03-30T03:02:43.658Z,7.70
2019-03-30T03:03:48.346Z,7.70
2019-03-30T03:04:52.879Z,7.69
2019-03-30T03:05:57.812Z,7.68
2019-03-30T03:07:02.739Z,7.66
2019-03-30T03:08:07.109Z,7.66
2019-03-30T03:09:11.611Z,7.66
2019-03-30T03:10:16.519Z,7.64
2019-03-30T03:11:21.033Z,7.64
2019-03-30T03:12:25.723Z,7.64
2019-03-30T03:13:30.496Z,7.64
2019-03-30T03:14:35.179Z,7.64
2019-03-30T03:15:39.871Z,7.63
2019-03-30T03:16:44.704Z,7.63
2019-03-30T03:17:49.143Z,7.61
2019-03-30T03:18:53.590Z,7.61
2019-03-30T03:19:58.540Z,7.52
2019-03-30T03:21:08.075Z,7.58
2019-03-30T03:22:09.894Z,7.56
2019-03-30T03:23:14.649Z,7.56
2019-03-30T03:24:19.017Z,7.55
2019-03-30T03:25:23.723Z,7.55
2019-03-30T03:26:28.164Z,7.54
2019-03-30T03:27:32.920Z,7.53
2019-03-30T03:28:37.357Z,7.58
2019-03-30T03:29:43.916Z,7.58
2019-03-30T03:30:48.611Z,7.54
2019-03-30T03:31:53.225Z,7.50
2019-03-30T03:32:57.588Z,7.48
2019-03-30T03:34:02.185Z,7.44
2019-03-30T03:35:06.857Z,7.42
2019-03-30T03:36:11.288Z,7.42
2019-03-30T03:37:16.051Z,7.42
2019-03-30T03:38:20.417Z,7.41
2019-03-30T03:39:25.114Z,7.42
2019-03-30T03:40:29.799Z,7.42
2019-03-30T03:41:34.475Z,7.43
2019-03-30T03:42:38.917Z,7.42
2019-03-30T03:43:43.673Z,7.40
2019-03-30T03:44:48.541Z,7.41
2019-03-30T03:45:53.229Z,7.40
2019-03-30T03:46:57.833Z,7.38
2019-03-30T03:48:02.592Z,7.37
2019-03-30T03:49:07.037Z,7.38
2019-03-30T03:50:25.701Z,7.36
2019-03-30T03:51:30.560Z,7.36
2019-03-30T03:52:35.266Z,7.36
2019-03-30T03:53:39.806Z,7.35
2019-03-30T03:54:46.094Z,7.35
2019-03-30T03:55:50.830Z,7.35
2019-03-30T03:56:56.158Z,7.34
2019-03-30T03:58:01.890Z,7.33
2019-03-30T03:59:08.104Z,7.32
2019-03-30T04:00:12.886Z,7.32
2019-03-30T04:01:20.009Z,7.30
2019-03-30T04:02:25.986Z,7.30
2019-03-30T04:03:33.693Z,7.28
2019-03-30T04:04:39.789Z,7.26
2019-03-30T04:05:47.075Z,7.25
2019-03-30T04:06:52.211Z,7.22
2019-03-30T04:07:59.207Z,7.22
2019-03-30T04:09:05.999Z,7.21
2019-03-30T04:10:10.865Z,7.20
2019-03-30T04:11:16.260Z,7.20
2019-03-30T04:12:23.568Z,7.20
2019-03-30T04:13:30.185Z,7.19
2019-03-30T04:14:37.767Z,7.18
2019-03-30T04:15:42.297Z,7.19
2019-03-30T04:16:46.741Z,7.18
2019-03-30T04:17:51.674Z,7.17
2019-03-30T04:18:56.115Z,7.18
2019-03-30T04:20:01.049Z,7.17
2019-03-30T04:21:05.504Z,7.15
2019-03-30T04:22:10.117Z,7.16
2019-03-30T04:23:14.645Z,7.15
2019-03-30T04:24:19.252Z,7.13
2019-03-30T04:25:24.184Z,7.13
2019-03-30T04:26:29.048Z,7.13
2019-03-30T04:27:33.905Z,7.12
2019-03-30T04:28:38.516Z,7.13
2019-03-30T04:29:43.130Z,7.12
2019-03-30T04:30:47.831Z,7.11
2019-03-30T04:31:52.439Z,7.17
2019-03-30T04:32:57.361Z,7.15
2019-03-30T04:34:01.723Z,7.15
2019-03-30T04:35:06.953Z,7.08
2019-03-30T04:36:11.596Z,7.09
2019-03-30T04:37:16.465Z,7.13
2019-03-30T04:38:21.324Z,7.09
2019-03-30T04:39:25.764Z,7.08
2019-03-30T04:40:30.287Z,7.06
2019-03-30T04:41:34.787Z,7.08
2019-03-30T04:42:39.725Z,7.05
2019-03-30T04:43:44.335Z,7.07
2019-03-30T04:44:48.776Z,7.04
2019-03-30T04:45:53.471Z,7.02
2019-03-30T04:46:58.335Z,7.01
2019-03-30T04:48:03.026Z,7.00
2019-03-30T04:49:07.992Z,6.99
2019-03-30T04:50:12.660Z,6.98
2019-03-30T04:51:17.038Z,7.00
2019-03-30T04:52:21.719Z,6.98
2019-03-30T04:53:26.082Z,6.97
2019-03-30T04:54:31.184Z,6.96
2019-03-30T04:55:35.896Z,6.95
2019-03-30T04:56:40.274Z,6.95
2019-03-30T04:57:44.635Z,6.93
2019-03-30T04:58:49.241Z,6.94
2019-03-30T04:59:53.691Z,6.93
2019-03-30T05:00:58.872Z,6.93
2019-03-30T05:02:03.576Z,6.92
2019-03-30T05:03:08.263Z,6.91
2019-03-30T05:04:13.170Z,6.91
2019-03-30T05:05:17.923Z,6.91
2019-03-30T05:06:22.871Z,6.91
2019-03-30T05:07:27.788Z,6.91
2019-03-30T05:08:32.232Z,6.90
2019-03-30T05:09:36.838Z,6.90
2019-03-30T05:10:41.277Z,6.90
2019-03-30T05:11:46.397Z,6.89
2019-03-30T05:12:51.014Z,6.89
2019-03-30T05:13:55.708Z,6.88
2019-03-30T05:15:00.648Z,6.88
2019-03-30T05:16:05.595Z,6.89
2019-03-30T05:17:10.368Z,6.89
2019-03-30T05:18:15.231Z,6.88
2019-03-30T05:19:19.851Z,6.89
2019-03-30T05:20:24.368Z,6.88
2019-03-30T05:21:28.744Z,6.87
2019-03-30T05:22:33.178Z,6.88
2019-03-30T05:23:37.943Z,6.88
2019-03-30T05:24:42.560Z,6.87
2019-03-30T05:25:47.255Z,6.89
2019-03-30T05:26:51.704Z,6.86
2019-03-30T05:27:56.643Z,6.87
2019-03-30T05:29:01.345Z,6.85
2019-03-30T05:30:06.888Z,6.87
2019-03-30T05:31:11.644Z,6.87
2019-03-30T05:32:16.354Z,6.89
2019-03-30T05:33:21.580Z,6.87
2019-03-30T05:34:26.288Z,6.88
2019-03-30T05:35:30.652Z,6.88
2019-03-30T05:36:35.111Z,6.88
2019-03-30T05:37:39.799Z,6.88
2019-03-30T05:38:44.160Z,6.88
2019-03-30T05:39:49.023Z,6.88
2019-03-30T05:40:53.963Z,6.88
2019-03-30T05:41:58.420Z,6.89
2019-03-30T05:43:03.523Z,6.90
2019-03-30T05:44:08.710Z,6.92
2019-03-30T05:45:13.334Z,6.93
2019-03-30T05:46:18.272Z,6.93
2019-03-30T05:47:23.310Z,6.94
2019-03-30T05:48:27.999Z,6.96
2019-03-30T05:49:32.862Z,6.96
2019-03-30T05:50:37.870Z,6.98
2019-03-30T05:51:42.992Z,6.96
2019-03-30T05:52:47.751Z,6.99
2019-03-30T05:53:52.187Z,7.00
2019-03-30T05:54:57.048Z,6.99
2019-03-30T05:56:01.466Z,7.03
2019-03-30T05:57:05.788Z,7.04
2019-03-30T05:58:10.732Z,7.10
2019-03-30T05:59:15.607Z,7.10
2019-03-30T06:00:22.424Z,7.04
2019-03-30T06:01:27.121Z,7.01
2019-03-30T06:02:31.746Z,7.01
2019-03-30T06:03:36.355Z,7.00
2019-03-30T06:04:40.720Z,6.97
2019-03-30T06:05:45.325Z,6.99
2019-03-30T06:06:50.274Z,7.00
2019-03-30T06:07:54.988Z,7.01
2019-03-30T06:08:59.675Z,7.04
2019-03-30T06:10:04.367Z,7.07
2019-03-30T06:11:09.055Z,7.11
2019-03-30T06:12:13.927Z,7.10
2019-03-30T06:13:18.547Z,7.12
2019-03-30T06:14:23.158Z,7.14
2019-03-30T06:15:28.267Z,7.16
2019-03-30T06:16:33.570Z,7.17
2019-03-30T06:17:38.027Z,7.20
2019-03-30T06:18:43.171Z,7.23
2019-03-30T06:19:48.023Z,7.25
2019-03-30T06:20:52.639Z,7.31
2019-03-30T06:21:57.263Z,7.36
2019-03-30T06:23:01.706Z,7.44
2019-03-30T06:24:06.148Z,7.54
2019-03-30T06:25:10.986Z,7.65
2019-03-30T06:26:15.741Z,7.76
2019-03-30T06:27:20.370Z,7.88
2019-03-30T06:28:25.226Z,7.99
2019-03-30T06:29:29.834Z,8.05
2019-03-30T06:30:34.514Z,8.16
2019-03-30T06:31:39.452Z,8.21
2019-03-30T06:32:44.482Z,8.27
2019-03-30T06:33:48.921Z,8.32
2019-03-30T06:34:53.524Z,8.39
2019-03-30T06:35:57.894Z,8.45
2019-03-30T06:37:02.347Z,8.54
2019-03-30T06:38:06.783Z,8.61
2019-03-30T06:39:11.395Z,8.68
2019-03-30T06:40:17.391Z,8.75
2019-03-30T06:41:21.832Z,8.80
2019-03-30T06:42:26.207Z,8.85
2019-03-30T06:43:30.888Z,8.90
2019-03-30T06:44:35.495Z,8.95
2019-03-30T06:45:40.439Z,9.01
2019-03-30T06:46:45.133Z,9.06
2019-03-30T06:47:50.179Z,9.10
2019-03-30T06:48:54.543Z,9.17
2019-03-30T06:49:59.165Z,9.26
2019-03-30T06:51:03.536Z,9.27
2019-03-30T06:52:08.229Z,9.32
2019-03-30T06:53:12.929Z,9.34
2019-03-30T06:54:17.864Z,9.33
2019-03-30T06:55:22.564Z,9.33
2019-03-30T06:56:27.255Z,9.33
2019-03-30T06:57:31.644Z,9.31
2019-03-30T06:58:36.085Z,9.30
2019-03-30T06:59:40.448Z,9.28
2019-03-30T07:00:46.476Z,9.23
2019-03-30T07:01:51.897Z,9.24
2019-03-30T07:02:57.154Z,9.19
2019-03-30T07:04:02.608Z,9.21
2019-03-30T07:05:08.983Z,9.15
2019-03-30T07:06:15.658Z,9.11
2019-03-30T07:07:21.139Z,9.04
2019-03-30T07:08:27.829Z,8.96
2019-03-30T07:09:33.455Z,8.90
2019-03-30T07:10:39.277Z,8.87
2019-03-30T07:11:45.046Z,8.82
2019-03-30T07:12:52.641Z,8.83
2019-03-30T07:14:00.307Z,8.86
2019-03-30T07:15:05.899Z,8.87
2019-03-30T07:16:12.079Z,8.82
2019-03-30T07:17:17.425Z,8.78
2019-03-30T07:18:22.676Z,8.79
2019-03-30T07:19:30.744Z,8.84
2019-03-30T07:20:35.762Z,8.86
2019-03-30T07:21:41.040Z,8.88
2019-03-30T07:22:46.496Z,8.86
2019-03-30T07:23:51.451Z,8.90
2019-03-30T07:24:56.993Z,8.89
2019-03-30T07:26:03.826Z,8.94
2019-03-30T07:27:08.484Z,8.94
2019-03-30T07:28:13.057Z,8.95
2019-03-30T07:29:17.736Z,8.98
2019-03-30T07:30:22.517Z,9.00
2019-03-30T07:31:27.804Z,9.02
2019-03-30T07:32:32.204Z,9.03
2019-03-30T07:33:36.643Z,9.02
2019-03-30T07:34:41.820Z,9.15
2019-03-30T07:35:46.287Z,9.12
2019-03-30T07:36:50.950Z,9.14
2019-03-30T07:37:56.389Z,9.15
2019-03-30T07:39:00.833Z,9.21
2019-03-30T07:40:05.562Z,9.25
2019-03-30T07:41:10.330Z,9.32
2019-03-30T07:42:15.020Z,9.32
2019-03-30T07:43:19.467Z,9.34
2019-03-30T07:44:23.833Z,9.38
2019-03-30T07:45:28.273Z,9.40
2019-03-30T07:46:32.888Z,9.42
2019-03-30T07:47:37.707Z,9.47
2019-03-30T07:48:42.571Z,9.52
2019-03-30T07:49:47.053Z,9.59
2019-03-30T07:50:51.410Z,9.60
2019-03-30T07:51:56.413Z,9.72
2019-03-30T07:53:01.653Z,9.69
2019-03-30T07:54:06.906Z,9.75
2019-03-30T07:55:11.520Z,9.82
2019-03-30T07:56:15.969Z,9.89
2019-03-30T07:57:20.842Z,9.90
2019-03-30T07:58:25.788Z,9.99
2019-03-30T07:59:30.228Z,10.02
2019-03-30T08:00:35.166Z,10.07
2019-03-30T08:01:39.535Z,10.04
2019-03-30T08:02:44.078Z,10.04
2019-03-30T08:03:49.453Z,10.08
2019-03-30T08:04:54.223Z,10.10
2019-03-30T08:05:58.667Z,10.11
2019-03-30T08:07:03.036Z,10.20
2019-03-30T08:08:07.419Z,10.27
2019-03-30T08:09:11.941Z,10.28
2019-03-30T08:10:16.708Z,10.37
2019-03-30T08:11:21.652Z,10.42
2019-03-30T08:12:26.171Z,10.43
2019-03-30T08:13:30.581Z,10.46
2019-03-30T08:14:35.043Z,10.53
2019-03-30T08:15:39.993Z,10.56
2019-03-30T08:16:44.412Z,10.61
2019-03-30T08:17:48.805Z,10.63
2019-03-30T08:18:53.248Z,10.70
2019-03-30T08:19:57.706Z,10.75
2019-03-30T08:21:02.684Z,10.80
2019-03-30T08:22:07.451Z,10.82
2019-03-30T08:23:12.373Z,10.90
2019-03-30T08:24:17.809Z,10.95
2019-03-30T08:25:22.344Z,11.03
2019-03-30T08:26:27.216Z,11.06
2019-03-30T08:27:32.507Z,11.10
2019-03-30T08:28:37.212Z,11.18
2019-03-30T08:29:42.412Z,11.27
2019-03-30T08:30:47.181Z,11.33
2019-03-30T08:31:52.115Z,11.40
2019-03-30T08:32:57.079Z,11.44
2019-03-30T08:34:01.835Z,11.49
2019-03-30T08:35:06.996Z,11.49
2019-03-30T08:36:11.976Z,11.57
2019-03-30T08:37:16.436Z,11.58
2019-03-30T08:38:20.898Z,11.64
2019-03-30T08:39:25.613Z,11.73
2019-03-30T08:40:30.503Z,11.73
2019-03-30T08:41:34.968Z,11.79
2019-03-30T08:42:39.665Z,11.84
2019-03-30T08:43:44.370Z,11.88
2019-03-30T08:44:49.337Z,11.97
2019-03-30T08:45:53.960Z,12.00
2019-03-30T08:46:58.333Z,12.02
2019-03-30T08:48:03.332Z,12.07
2019-03-30T08:49:08.156Z,12.10
2019-03-30T08:50:13.740Z,12.20
2019-03-30T08:51:20.773Z,12.28
2019-03-30T08:52:24.691Z,12.32
2019-03-30T08:53:29.320Z,12.34
2019-03-30T08:54:34.190Z,12.38
2019-03-30T08:55:39.127Z,12.46
2019-03-30T08:56:44.001Z,12.49
2019-03-30T08:57:51.210Z,12.56
2019-03-30T08:58:55.836Z,12.66
2019-03-30T09:00:00.531Z,12.68
2019-03-30T09:01:04.980Z,12.72
2019-03-30T09:02:09.350Z,12.74
2019-03-30T09:03:14.376Z,12.81
2019-03-30T09:04:18.981Z,12.88
2019-03-30T09:05:23.420Z,13.03
2019-03-30T09:06:28.108Z,12.99
2019-03-30T09:07:32.619Z,12.98
2019-03-30T09:08:37.321Z,13.02
2019-03-30T09:09:42.277Z,13.12
2019-03-30T09:10:47.133Z,13.13
2019-03-30T09:11:51.741Z,13.16
2019-03-30T09:12:57.674Z,13.33
2019-03-30T09:14:02.620Z,13.33
2019-03-30T09:15:08.067Z,13.35
2019-03-30T09:16:12.518Z,13.40
2019-03-30T09:17:17.432Z,13.49
2019-03-30T09:18:21.897Z,13.48
2019-03-30T09:19:26.417Z,13.52
2019-03-30T09:20:31.105Z,13.58
2019-03-30T09:21:35.966Z,13.61
2019-03-30T09:22:40.409Z,13.67
2019-03-30T09:23:44.872Z,13.71
2019-03-30T09:24:49.561Z,13.81
2019-03-30T09:25:53.940Z,13.86
2019-03-30T09:26:58.558Z,13.90
2019-03-30T09:28:03.485Z,13.97
2019-03-30T09:29:09.305Z,13.98
2019-03-30T09:30:14.311Z,14.05
2019-03-30T09:31:19.417Z,14.09
2019-03-30T09:32:24.604Z,14.12
2019-03-30T09:33:29.241Z,14.20
2019-03-30T09:34:34.230Z,14.30
2019-03-30T09:35:39.519Z,14.39
2019-03-30T09:36:44.884Z,14.35
2019-03-30T09:37:49.745Z,14.43
2019-03-30T09:38:54.479Z,14.53
2019-03-30T09:39:59.017Z,14.57
2019-03-30T09:41:03.473Z,14.60
2019-03-30T09:42:08.343Z,14.66
2019-03-30T09:43:13.031Z,14.73
2019-03-30T09:44:17.413Z,14.73
2019-03-30T09:45:22.031Z,14.84
2019-03-30T09:46:26.893Z,14.91
2019-03-30T09:47:31.335Z,14.97
2019-03-30T09:48:36.196Z,14.93
2019-03-30T09:49:41.332Z,14.94
2019-03-30T09:50:45.848Z,15.05
2019-03-30T09:51:50.545Z,15.07
2019-03-30T09:52:55.407Z,15.10
2019-03-30T09:54:00.042Z,15.18
2019-03-30T09:55:05.031Z,15.24
2019-03-30T09:56:10.052Z,15.26
2019-03-30T09:57:14.756Z,15.35
2019-03-30T09:58:19.281Z,15.36
2019-03-30T09:59:23.994Z,15.41
2019-03-30T10:00:29.690Z,15.46
2019-03-30T10:01:34.560Z,15.61
2019-03-30T10:02:39.003Z,15.58
2019-03-30T10:03:43.376Z,15.65
2019-03-30T10:04:48.281Z,15.75
2019-03-30T10:05:53.067Z,15.77
2019-03-30T10:06:57.792Z,15.78
2019-03-30T10:08:02.386Z,15.79
2019-03-30T10:09:07.978Z,15.90
2019-03-30T10:10:12.580Z,15.94
2019-03-30T10:11:17.278Z,15.95
2019-03-30T10:12:21.907Z,15.99
2019-03-30T10:13:26.437Z,16.04
2019-03-30T10:14:31.146Z,16.09
2019-03-30T10:15:35.847Z,16.13
2019-03-30T10:16:40.220Z,16.19
2019-03-30T10:17:44.677Z,16.25
2019-03-30T10:18:49.309Z,16.30
2019-03-30T10:20:04.362Z,16.35
2019-03-30T10:21:00.540Z,16.39
2019-03-30T10:22:05.089Z,16.47
2019-03-30T10:23:09.473Z,16.54
2019-03-30T10:24:14.128Z,16.57
2019-03-30T10:25:18.673Z,16.61
2019-03-30T10:26:23.697Z,16.66
2019-03-30T10:27:28.572Z,16.71
2019-03-30T10:28:33.028Z,16.75
2019-03-30T10:29:37.986Z,16.82
2019-03-30T10:30:42.687Z,16.89
2019-03-30T10:31:47.394Z,16.92
2019-03-30T10:32:52.269Z,16.97
2019-03-30T10:33:56.720Z,17.00
2019-03-30T10:35:01.185Z,17.06
2019-03-30T10:36:05.640Z,17.10
2019-03-30T10:37:10.273Z,17.15
2019-03-30T10:38:15.149Z,17.23
2019-03-30T10:39:20.049Z,17.26
2019-03-30T10:40:24.506Z,17.32
2019-03-30T10:41:28.880Z,17.36
2019-03-30T10:42:33.262Z,17.49
2019-03-30T10:43:37.717Z,17.50
2019-03-30T10:44:42.608Z,17.56
2019-03-30T10:45:47.061Z,17.60
2019-03-30T10:46:51.829Z,17.67
2019-03-30T10:47:56.290Z,17.75
2019-03-30T10:49:00.660Z,17.81
2019-03-30T10:50:05.941Z,17.88
2019-03-30T10:51:10.816Z,17.91
2019-03-30T10:52:15.441Z,17.95
2019-03-30T10:53:20.130Z,18.01
2019-03-30T10:54:24.841Z,18.03
2019-03-30T10:55:29.207Z,18.07
2019-03-30T10:56:33.910Z,18.14
2019-03-30T10:57:38.592Z,18.20
2019-03-30T10:58:43.200Z,18.21
2019-03-30T10:59:47.987Z,18.27
2019-03-30T11:00:52.603Z,18.34
2019-03-30T11:01:57.543Z,18.38
2019-03-30T11:03:02.324Z,18.43
2019-03-30T11:04:07.096Z,18.51
2019-03-30T11:05:11.882Z,18.53
2019-03-30T11:06:16.580Z,18.58
2019-03-30T11:07:21.441Z,18.64
2019-03-30T11:08:25.934Z,18.67
2019-03-30T11:09:30.313Z,18.73
2019-03-30T11:10:34.929Z,18.80
2019-03-30T11:11:39.616Z,18.88
2019-03-30T11:12:44.230Z,18.95
2019-03-30T11:13:48.742Z,18.95
2019-03-30T11:14:53.692Z,18.98
2019-03-30T11:15:58.699Z,19.02
2019-03-30T11:17:03.684Z,19.07
2019-03-30T11:18:08.043Z,19.12
2019-03-30T11:19:12.652Z,19.23
2019-03-30T11:20:17.418Z,19.23
2019-03-30T11:21:22.277Z,19.25
2019-03-30T11:22:26.641Z,19.30
2019-03-30T11:23:31.513Z,19.38
2019-03-30T11:24:36.140Z,19.43
2019-03-30T11:25:40.769Z,19.48
2019-03-30T11:26:45.139Z,19.54
2019-03-30T11:27:49.756Z,19.60
2019-03-30T11:28:54.200Z,19.66
2019-03-30T11:29:58.898Z,19.72
2019-03-30T11:31:05.389Z,19.77
2019-03-30T11:32:10.065Z,19.82
2019-03-30T11:33:14.827Z,19.88
2019-03-30T11:34:19.512Z,19.92
2019-03-30T11:35:24.534Z,19.97
2019-03-30T11:36:29.214Z,20.03
2019-03-30T11:37:33.904Z,20.08
2019-03-30T11:38:38.267Z,20.12
2019-03-30T11:39:42.954Z,20.16
2019-03-30T11:40:47.731Z,20.19
2019-03-30T11:41:52.334Z,20.24
2019-03-30T11:42:57.014Z,20.27
2019-03-30T11:44:01.436Z,20.29
2019-03-30T11:45:06.336Z,20.32
2019-03-30T11:46:11.026Z,20.35
2019-03-30T11:47:15.794Z,20.39
2019-03-30T11:48:20.241Z,20.48
2019-03-30T11:49:24.609Z,20.48
2019-03-30T11:50:29.062Z,20.49
2019-03-30T11:51:34.003Z,20.50
2019-03-30T11:52:39.192Z,20.53
2019-03-30T11:53:43.808Z,20.56
2019-03-30T11:54:48.588Z,20.60
2019-03-30T11:55:53.195Z,20.65
2019-03-30T11:56:57.637Z,20.67
2019-03-30T11:58:02.400Z,20.69
2019-03-30T11:59:07.184Z,20.74
2019-03-30T12:00:11.995Z,20.80
2019-03-30T12:01:16.448Z,20.81
2019-03-30T12:02:27.756Z,20.85
2019-03-30T12:03:27.251Z,20.88
2019-03-30T12:04:31.952Z,20.93
2019-03-30T12:05:36.978Z,20.98
2019-03-30T12:06:41.496Z,21.04
2019-03-30T12:07:46.184Z,21.10
2019-03-30T12:08:51.188Z,21.16
2019-03-30T12:09:56.138Z,21.21
2019-03-30T12:11:00.831Z,21.26
2019-03-30T12:12:05.594Z,21.31
2019-03-30T12:13:10.036Z,21.36
2019-03-30T12:14:14.984Z,21.40
2019-03-30T12:15:19.517Z,21.45
2019-03-30T12:16:24.519Z,21.46
2019-03-30T12:17:29.465Z,21.45
2019-03-30T12:18:33.830Z,21.45
2019-03-30T12:19:38.516Z,21.46
2019-03-30T12:20:43.391Z,21.48
2019-03-30T12:21:48.016Z,21.47
2019-03-30T12:22:52.462Z,21.48
2019-03-30T12:23:56.830Z,21.49
2019-03-30T12:25:02.108Z,21.51
2019-03-30T12:26:07.427Z,21.53
2019-03-30T12:27:11.794Z,21.55
2019-03-30T12:28:16.654Z,21.58
2019-03-30T12:29:21.107Z,21.62
2019-03-30T12:30:25.881Z,21.63
2019-03-30T12:31:30.541Z,21.67
2019-03-30T12:32:35.240Z,21.72
2019-03-30T12:33:40.424Z,21.76
2019-03-30T12:34:44.867Z,21.72
2019-03-30T12:35:49.355Z,21.84
2019-03-30T12:36:55.835Z,21.87
2019-03-30T12:38:00.713Z,21.90
2019-03-30T12:39:06.865Z,21.88
2019-03-30T12:40:11.595Z,21.83
2019-03-30T12:41:16.287Z,21.77
2019-03-30T12:42:20.732Z,21.70
2019-03-30T12:43:25.435Z,21.67
2019-03-30T12:44:30.395Z,21.65
2019-03-30T12:45:34.856Z,21.64
2019-03-30T12:46:39.536Z,21.67
2019-03-30T12:47:43.980Z,21.70
2019-03-30T12:48:48.593Z,21.76
2019-03-30T12:49:53.366Z,21.79
2019-03-30T12:50:58.320Z,21.81
2019-03-30T12:52:02.758Z,21.86
2019-03-30T12:53:07.524Z,21.87
2019-03-30T12:54:12.206Z,21.88
2019-03-30T12:55:16.903Z,21.89
2019-03-30T12:56:21.845Z,21.92
2019-03-30T12:57:26.788Z,21.94
2019-03-30T12:58:31.399Z,21.97
2019-03-30T12:59:36.093Z,21.99
2019-03-30T13:00:40.710Z,22.02
2019-03-30T13:01:45.152Z,22.04
2019-03-30T13:02:49.684Z,22.07
2019-03-30T13:03:54.373Z,22.10
2019-03-30T13:04:58.982Z,22.12
2019-03-30T13:06:03.683Z,22.14
2019-03-30T13:07:08.289Z,22.17
2019-03-30T13:08:12.731Z,22.19
2019-03-30T13:09:17.258Z,22.20
2019-03-30T13:10:22.024Z,22.21
2019-03-30T13:11:26.656Z,22.23
2019-03-30T13:12:31.523Z,22.24
2019-03-30T13:13:35.959Z,22.27
2019-03-30T13:14:40.570Z,22.29
2019-03-30T13:15:45.199Z,22.30
2019-03-30T13:16:49.635Z,22.31
2019-03-30T13:17:54.006Z,22.34
2019-03-30T13:18:58.695Z,22.39
2019-03-30T13:20:03.622Z,22.39
2019-03-30T13:21:08.002Z,22.39
2019-03-30T13:22:12.688Z,22.39
2019-03-30T13:23:17.695Z,22.40
2019-03-30T13:24:22.534Z,22.43
2019-03-30T13:25:27.224Z,22.42
2019-03-30T13:26:31.687Z,22.43
2019-03-30T13:27:36.458Z,22.47
2019-03-30T13:28:40.824Z,22.48
2019-03-30T13:29:45.520Z,22.51
2019-03-30T13:30:50.052Z,22.50
2019-03-30T13:31:54.418Z,22.51
2019-03-30T13:32:58.778Z,22.53
2019-03-30T13:34:03.474Z,22.54
2019-03-30T13:35:08.003Z,22.55
2019-03-30T13:36:13.006Z,22.56
2019-03-30T13:37:18.359Z,22.61
2019-03-30T13:38:25.760Z,22.56
2019-03-30T13:39:29.137Z,22.56
2019-03-30T13:40:33.582Z,22.54
2019-03-30T13:41:38.111Z,22.54
2019-03-30T13:42:42.474Z,22.54
2019-03-30T13:43:46.826Z,22.53
2019-03-30T13:44:51.438Z,22.54
2019-03-30T13:45:56.388Z,22.53
2019-03-30T13:47:01.004Z,22.55
2019-03-30T13:48:05.523Z,22.56
2019-03-30T13:49:10.210Z,22.57
2019-03-30T13:50:15.282Z,22.54
2019-03-30T13:51:19.707Z,22.55
2019-03-30T13:52:24.541Z,22.55
2019-03-30T13:53:29.490Z,22.57
2019-03-30T13:54:33.924Z,22.57
2019-03-30T13:55:38.539Z,22.56
2019-03-30T13:56:43.165Z,22.61
2019-03-30T13:57:47.617Z,22.60
2019-03-30T13:58:52.892Z,22.59
2019-03-30T13:59:57.506Z,22.57
2019-03-30T14:01:02.229Z,22.59
2019-03-30T14:02:06.670Z,22.57
2019-03-30T14:03:11.853Z,22.58
2019-03-30T14:04:16.645Z,22.58
2019-03-30T14:05:40.002Z,22.57
2019-03-30T14:06:44.703Z,22.56
2019-03-30T14:07:49.570Z,22.58
2019-03-30T14:08:54.574Z,22.56
2019-03-30T14:09:59.330Z,22.56
2019-03-30T14:11:04.212Z,22.56